In Rescue
 
Open Full Screen Window  High Contrast Mode
Wind Gusting 15 knots
08
April 19, 2021 8:42 PM EDT
Weather Information
Wind Direction
  260 °
Wind Speed
  08 kt (9 mph)
Wind Gust
  15 kt (17 mph)
Altimeter
29.85 in
Visibility
10 SM
Temperature
06° C
43° F
Dewpoint
00° C
32° F
Humidity
66%
1hr Rain Fall
00.00 in.
24hr Rain Fall
00.00 in.
Sky Condition
Overcast @ 9,000 ft
Scattered @ 7,000 ft
Scattered @ 4,600 ft
VFR

METAR KOZW 200042Z AUTO 26008G15KT 10SM SCT046 SCT070 OVC090 06/00 A2985 RMK AO2 T00551005

FAA Disclaimer: The data displayed is for advisory purposes only and is not to be used for flight planning or operations.